Time;durP1;ratioP1;P1;durP2;ratioP2;P2;SDS_P1;SDS_P2;PMS_P1;PMS_P2;Temp;Humidity;BMP_temperature;BMP_pressure;BME280_temperature;BME280_humidity;BME280_pressure;Samples;Min_cycle;Max_cycle;Signal;HPM_P1;HPM_P2
2021/09/21 00:00:20;;;;;;;;;42.50;35.00;;;;;16.81;69.92;102363.25;4886000;29;46412;-90
2021/09/21 00:02:46;;;;;;;;;33.25;29.00;;;;;16.72;68.89;102348.50;4885675;29;45380;-89
2021/09/21 00:05:11;;;;;;;;;41.25;33.75;;;;;16.73;69.30;102352.91;4886002;29;45149;-92
2021/09/21 00:07:36;;;;;;;;;33.50;31.00;;;;;16.73;69.32;102360.84;4902939;29;45585;-93
2021/09/21 00:10:03;;;;;;;;;32.50;29.25;;;;;16.70;69.43;102362.72;4887433;29;47371;-87
2021/09/21 00:12:29;;;;;;;;;33.50;31.25;;;;;16.71;68.69;102361.81;4885225;29;45890;-88
2021/09/21 00:14:54;;;;;;;;;35.75;28.50;;;;;16.65;68.49;102352.28;4885295;29;45367;-89
2021/09/21 00:17:20;;;;;;;;;35.50;29.00;;;;;16.62;68.29;102353.25;4884656;29;45407;-83
2021/09/21 00:19:45;;;;;;;;;33.00;29.50;;;;;16.61;68.59;102362.13;4883954;29;46061;-86
2021/09/21 00:22:10;;;;;;;;;34.25;27.75;;;;;16.63;68.24;102373.56;4885207;29;45404;-85
2021/09/21 00:24:36;;;;;;;;;28.75;24.75;;;;;16.59;68.38;102373.72;4885731;29;45440;-86
2021/09/21 00:27:01;;;;;;;;;34.75;28.50;;;;;16.53;68.04;102377.44;4884787;29;45507;-86
2021/09/21 00:29:40;;;;;;;;;34.00;30.00;;;;;16.54;67.88;102395.09;4892604;29;45453;-90
2021/09/21 00:32:13;;;;;;;;;33.75;25.00;;;;;16.43;67.73;102382.16;4888566;29;45498;-89
2021/09/21 00:34:48;;;;;;;;;;;;;;;;;;;;;
2021/09/21 00:37:15;;;;;;;;;28.25;26.25;;;;;16.44;67.68;102391.00;4873867;29;74203;-90
2021/09/21 00:39:55;;;;;;;;;;;;;;;;;;;;;
2021/09/21 00:46:55;;;;;;;;;29.00;22.75;;;;;16.27;67.58;102382.63;4772951;29;45269;-90
2021/09/21 00:49:20;;;;;;;;;28.00;26.25;;;;;16.27;66.92;102373.84;4817127;29;45688;-87
2021/09/21 00:51:46;;;;;;;;;31.75;25.25;;;;;16.29;66.92;102387.91;4868010;29;47479;-87
2021/09/21 00:54:11;;;;;;;;;33.00;26.25;;;;;16.26;67.48;102388.00;4884811;29;45267;-87
2021/09/21 00:56:38;;;;;;;;;35.50;30.25;;;;;16.33;67.26;102405.47;4868051;29;45414;-87
2021/09/21 00:59:04;;;;;;;;;30.00;23.00;;;;;16.30;66.60;102395.81;4893710;29;45508;-86
2021/09/21 01:01:30;;;;;;;;;32.00;25.75;;;;;16.23;66.98;102388.97;4886512;29;45476;-86
2021/09/21 01:04:46;;;;;;;;;29.50;22.75;;;;;16.30;67.72;102394.94;4869500;29;45202;-94
2021/09/21 01:07:11;;;;;;;;;28.25;25.75;;;;;16.34;67.74;102396.59;4875058;29;45210;-93
2021/09/21 01:09:36;;;;;;;;;27.75;26.00;;;;;16.29;66.48;102372.00;4883915;29;46383;-92
2021/09/21 01:12:02;;;;;;;;;27.75;27.75;;;;;16.31;66.71;102386.06;4886792;29;46144;-93
2021/09/21 01:14:28;;;;;;;;;34.75;29.75;;;;;16.25;66.29;102392.44;4879347;29;45565;-92
2021/09/21 01:16:54;;;;;;;;;33.50;30.75;;;;;16.17;66.79;102390.00;4868527;29;45235;-91
2021/09/21 01:19:20;;;;;;;;;26.50;25.00;;;;;16.22;66.18;102407.59;4868382;29;46535;-93
2021/09/21 01:22:05;;;;;;;;;;;;;;;;;;;;;
2021/09/21 01:24:33;;;;;;;;;41.25;33.75;;;;;16.15;66.28;102404.25;4884517;29;71700;-92
2021/09/21 01:27:49;;;;;;;;;;;;;;;;;;;;;
2021/09/21 01:30:15;;;;;;;;;41.50;34.00;;;;;16.10;65.84;102408.81;4877622;29;74331;-90
2021/09/21 01:32:41;;;;;;;;;34.25;31.00;;;;;16.05;66.15;102406.31;4884357;29;45367;-90
2021/09/21 01:35:07;;;;;;;;;37.00;32.50;;;;;15.95;66.51;102403.88;4867530;29;45238;-91
2021/09/21 01:37:33;;;;;;;;;42.75;34.25;;;;;16.00;66.89;102424.13;4867987;29;45302;-91
2021/09/21 01:39:59;;;;;;;;;38.50;35.00;;;;;16.01;66.17;102420.53;4884509;29;45457;-91
2021/09/21 01:42:24;;;;;;;;;39.00;33.25;;;;;15.92;66.31;102419.03;4867135;29;46235;-92
2021/09/21 01:44:50;;;;;;;;;38.00;33.00;;;;;15.80;66.08;102413.16;4884915;29;45443;-93
2021/09/21 01:47:17;;;;;;;;;32.50;27.00;;;;;15.77;66.29;102409.72;4868325;29;45290;-90
2021/09/21 01:50:17;;;;;;;;;41.75;34.00;;;;;15.74;66.55;102408.91;4884114;29;45542;-84
2021/09/21 01:52:36;;;;;;;;;35.50;32.25;;;;;15.73;66.18;102425.72;4884877;29;45485;-84
2021/09/21 01:58:16;;;;;;;;;37.25;32.50;;;;;15.69;66.33;102420.53;4902397;29;45759;-84
2021/09/21 02:00:43;;;;;;;;;41.00;32.25;;;;;15.65;65.87;102419.75;4885587;29;45329;-85
2021/09/21 02:03:09;;;;;;;;;35.25;29.00;;;;;15.68;66.46;102430.25;4883582;29;46447;-87
2021/09/21 02:05:35;;;;;;;;;42.00;32.25;;;;;15.61;66.41;102423.38;4883904;29;45218;-88
2021/09/21 02:08:00;;;;;;;;;42.25;33.50;;;;;15.60;66.69;102430.50;4884196;29;45268;-89
2021/09/21 02:10:26;;;;;;;;;36.25;28.00;;;;;15.68;66.36;102442.66;4883844;29;45487;-90
2021/09/21 02:12:51;;;;;;;;;48.00;34.75;;;;;15.65;66.36;102435.66;4883373;29;45370;-90
2021/09/21 02:15:17;;;;;;;;;40.00;32.50;;;;;15.60;66.49;102426.97;4883987;29;45242;-90
2021/09/21 02:17:42;;;;;;;;;35.75;31.75;;;;;15.58;66.44;102431.44;4884028;29;45527;-89
2021/09/21 02:20:08;;;;;;;;;38.00;32.50;;;;;15.57;66.41;102435.00;4886031;29;45232;-90
2021/09/21 02:22:33;;;;;;;;;44.25;32.00;;;;;15.50;66.40;102429.88;4886749;29;47269;-86
2021/09/21 02:24:59;;;;;;;;;42.75;34.50;;;;;15.46;66.43;102446.75;4887402;29;45269;-87
2021/09/21 02:27:25;;;;;;;;;37.25;27.00;;;;;15.45;66.68;102444.16;4869777;29;45443;-87
2021/09/21 02:29:51;;;;;;;;;36.00;27.50;;;;;15.43;66.43;102445.97;4873029;29;46110;-89
2021/09/21 02:32:16;;;;;;;;;46.00;34.75;;;;;15.41;66.89;102440.69;4886888;29;45502;-89
2021/09/21 02:34:45;;;;;;;;;37.75;33.50;;;;;15.43;67.00;102438.03;4869947;29;45459;-89
2021/09/21 02:37:12;;;;;;;;;39.50;34.50;;;;;15.47;66.50;102469.69;4876457;29;45308;-88
2021/09/21 02:39:38;;;;;;;;;38.25;32.25;;;;;15.39;66.67;102455.78;4886913;29;45750;-89
2021/09/21 02:42:03;;;;;;;;;40.75;32.75;;;;;15.34;66.72;102447.06;4886585;29;46164;-88
2021/09/21 02:44:36;;;;;;;;;38.50;33.25;;;;;15.30;66.80;102446.28;4885805;29;45267;-93
2021/09/21 02:47:11;;;;;;;;;35.75;28.00;;;;;15.33;66.75;102455.94;4870785;29;45267;-91
2021/09/21 02:49:37;;;;;;;;;40.00;33.75;;;;;15.29;67.26;102449.84;4870476;29;47245;-92
2021/09/21 02:52:03;;;;;;;;;39.50;34.75;;;;;15.31;66.94;102437.41;4894924;29;45249;-89
2021/09/21 02:54:28;;;;;;;;;35.50;27.50;;;;;15.32;67.27;102446.25;4886831;29;45294;-87
2021/09/21 02:56:54;;;;;;;;;41.75;34.00;;;;;15.28;66.79;102443.66;4869647;29;45588;-88
2021/09/21 02:59:20;;;;;;;;;44.25;34.50;;;;;15.30;67.10;102447.16;4886780;29;45506;-88
2021/09/21 03:01:45;;;;;;;;;47.50;34.00;;;;;15.20;67.13;102435.06;4886517;29;45472;-89
2021/09/21 03:04:29;;;;;;;;;46.50;34.75;;;;;15.23;67.21;102439.41;4886986;29;45335;-93
2021/09/21 03:07:03;;;;;;;;;41.50;34.50;;;;;15.24;67.54;102436.72;4888088;29;45467;-92
2021/09/21 03:12:15;;;;;;;;;46.75;36.00;;;;;15.24;67.83;102436.72;4887004;29;45983;-92
2021/09/21 03:17:57;;;;;;;;;;;;;;;;;;;;;
2021/09/21 03:20:23;;;;;;;;;50.50;35.75;;;;;15.15;67.80;102452.84;4883142;29;73712;-88
2021/09/21 03:22:48;;;;;;;;;46.25;34.25;;;;;15.10;67.71;102458.25;4886338;29;45382;-87
2021/09/21 03:25:14;;;;;;;;;51.75;37.50;;;;;15.05;67.92;102452.19;4886520;29;45502;-90
2021/09/21 03:27:39;;;;;;;;;47.75;38.00;;;;;15.03;67.65;102456.66;4885897;29;45544;-91
2021/09/21 03:30:05;;;;;;;;;41.50;35.75;;;;;15.02;67.90;102457.56;4886378;29;45358;-86
2021/09/21 03:32:30;;;;;;;;;36.00;32.00;;;;;15.01;67.98;102467.31;4885745;29;46360;-86
2021/09/21 03:34:56;;;;;;;;;43.25;34.00;;;;;15.02;67.63;102473.44;4869327;29;45699;-85
2021/09/21 03:37:22;;;;;;;;;47.00;38.00;;;;;15.02;68.28;102465.50;4885937;29;45211;-85
2021/09/21 03:39:47;;;;;;;;;45.75;37.00;;;;;14.97;68.78;102476.22;4885594;29;45207;-85
2021/09/21 03:42:13;;;;;;;;;47.00;38.50;;;;;14.96;68.40;102474.47;4885797;29;45316;-84
2021/09/21 03:44:39;;;;;;;;;39.00;31.25;;;;;14.96;68.07;102475.34;4886095;29;45214;-84
2021/09/21 03:47:04;;;;;;;;;59.25;43.00;;;;;14.96;67.93;102475.34;4885872;29;45488;-86
2021/09/21 03:49:30;;;;;;;;;53.25;38.25;;;;;14.89;68.18;102473.72;4885975;29;45477;-88
2021/09/21 03:51:56;;;;;;;;;49.00;40.75;;;;;14.89;68.33;102476.38;4868983;29;46261;-88
2021/09/21 03:54:21;;;;;;;;;53.75;41.75;;;;;14.92;68.25;102481.63;4885902;29;45442;-85
2021/09/21 03:56:47;;;;;;;;;43.00;35.75;;;;;14.94;68.38;102474.50;4885838;29;45307;-85
2021/09/21 03:59:12;;;;;;;;;47.25;39.00;;;;;14.97;67.91;102473.56;4886450;29;45285;-86
2021/09/21 04:01:37;;;;;;;;;50.00;38.25;;;;;14.95;67.94;102473.59;4868835;29;47140;-84
2021/09/21 04:04:04;;;;;;;;;53.75;41.25;;;;;15.03;68.21;102489.31;4885753;29;45424;-83
2021/09/21 04:06:29;;;;;;;;;50.00;39.00;;;;;14.99;67.78;102490.28;4885518;29;45470;-83
2021/09/21 04:08:55;;;;;;;;;43.75;37.50;;;;;14.98;68.22;102493.84;4885764;29;45383;-85
2021/09/21 04:11:22;;;;;;;;;46.75;37.75;;;;;15.03;68.20;102491.09;4885644;29;46095;-83
2021/09/21 04:13:48;;;;;;;;;48.50;38.50;;;;;15.01;68.52;102484.97;4868209;29;45708;-88
2021/09/21 04:16:13;;;;;;;;;51.75;38.25;;;;;15.03;68.77;102485.78;4868856;29;45263;-90
2021/09/21 04:18:39;;;;;;;;;48.75;38.75;;;;;15.12;68.58;102497.94;4885511;29;45520;-89
2021/09/21 04:21:04;;;;;;;;;46.75;33.50;;;;;15.09;67.71;102490.94;4885678;29;45443;-92
2021/09/21 04:23:30;;;;;;;;;46.50;36.75;;;;;15.09;67.72;102492.72;4885238;29;45386;-91
2021/09/21 04:25:56;;;;;;;;;47.25;38.00;;;;;15.11;67.72;102498.84;4885752;29;45423;-90
2021/09/21 04:28:21;;;;;;;;;51.50;37.00;;;;;15.06;67.00;102505.09;4885570;29;45301;-89
2021/09/21 04:30:48;;;;;;;;;42.75;34.50;;;;;15.07;67.60;102508.63;4867732;29;48173;-83
2021/09/21 04:33:14;;;;;;;;;50.50;39.25;;;;;15.01;67.37;102507.03;4884060;29;45956;-83
2021/09/21 04:35:41;;;;;;;;;40.25;35.50;;;;;15.02;67.54;102511.41;4885224;29;45225;-84
2021/09/21 04:38:08;;;;;;;;;52.25;39.75;;;;;15.01;67.29;102511.44;4885053;29;45595;-87
2021/09/21 04:40:33;;;;;;;;;43.25;34.75;;;;;14.92;66.98;102504.56;4884662;29;45780;-87
2021/09/21 04:42:58;;;;;;;;;53.50;38.75;;;;;14.89;67.62;102505.50;4884931;29;45735;-87
2021/09/21 04:45:24;;;;;;;;;59.25;44.00;;;;;14.91;67.49;102510.78;4885402;29;45230;-87
2021/09/21 04:47:49;;;;;;;;;50.75;40.75;;;;;14.86;67.11;102513.53;4884997;29;45435;-86
2021/09/21 04:50:15;;;;;;;;;44.25;36.50;;;;;14.82;67.72;102519.75;4867406;29;47266;-83
2021/09/21 04:52:40;;;;;;;;;51.00;38.00;;;;;14.74;67.33;102525.25;4885105;29;45408;-83
2021/09/21 04:55:07;;;;;;;;;55.75;42.75;;;;;14.68;67.21;102541.25;4885306;29;45309;-82
2021/09/21 04:57:33;;;;;;;;;50.00;39.25;;;;;14.58;67.17;102522.03;4867420;29;46206;-84
2021/09/21 04:59:59;;;;;;;;;56.50;43.00;;;;;14.48;67.10;102516.94;4885479;29;46625;-84
2021/09/21 05:02:24;;;;;;;;;49.50;40.50;;;;;14.45;68.23;102529.34;4868286;29;45376;-84
2021/09/21 05:04:49;;;;;;;;;53.50;42.25;;;;;14.36;68.14;102522.50;4891005;29;45797;-84
2021/09/21 05:07:15;;;;;;;;;52.25;42.00;;;;;14.27;67.82;102531.50;4874153;29;47668;-86
2021/09/21 05:09:42;;;;;;;;;60.00;45.50;;;;;14.17;68.06;102513.16;4858812;29;48094;-87
2021/09/21 05:12:08;;;;;;;;;52.50;42.25;;;;;14.19;68.20;102531.66;4874412;29;45369;-93
2021/09/21 05:14:33;;;;;;;;;50.00;41.75;;;;;14.12;68.21;102522.09;4884893;29;45239;-85
2021/09/21 05:16:59;;;;;;;;;56.00;44.50;;;;;14.07;68.47;102519.53;4884482;29;45225;-86
2021/09/21 05:19:25;;;;;;;;;58.25;43.75;;;;;14.07;69.08;102528.31;4867665;29;46712;-90
2021/09/21 05:21:50;;;;;;;;;58.25;44.25;;;;;14.06;68.80;102520.44;4883681;29;45348;-91
2021/09/21 05:24:16;;;;;;;;;55.75;44.00;;;;;14.10;68.24;102522.09;4881880;29;46316;-90
2021/09/21 05:26:41;;;;;;;;;59.75;44.00;;;;;14.01;68.28;102514.34;4884601;29;45346;-91
2021/09/21 05:29:07;;;;;;;;;54.50;41.75;;;;;14.07;69.04;102532.75;4884123;29;45486;-91
2021/09/21 05:31:33;;;;;;;;;56.00;44.50;;;;;14.03;68.37;102536.34;4884263;29;45492;-92
2021/09/21 05:34:00;;;;;;;;;54.75;43.25;;;;;14.03;68.61;102534.56;4874068;29;45455;-91
2021/09/21 05:36:26;;;;;;;;;55.50;43.25;;;;;13.99;68.04;102530.25;4883161;29;46264;-91
2021/09/21 05:38:51;;;;;;;;;55.25;41.50;;;;;13.99;68.07;102540.84;4867288;29;47520;-90
2021/09/21 05:41:17;;;;;;;;;56.25;44.00;;;;;13.91;68.33;102537.44;4884089;29;45751;-88
2021/09/21 05:43:42;;;;;;;;;51.50;39.25;;;;;13.97;68.63;102557.63;4884645;29;45269;-89
2021/09/21 05:46:07;;;;;;;;;52.75;43.75;;;;;13.95;68.03;102563.78;4884466;29;45161;-89
2021/09/21 05:48:33;;;;;;;;;49.25;39.00;;;;;13.88;67.62;102554.22;4867107;29;48279;-89
2021/09/21 05:50:58;;;;;;;;;51.50;38.75;;;;;13.80;67.69;102561.44;4884146;29;45205;-89
2021/09/21 05:53:24;;;;;;;;;53.00;42.25;;;;;13.75;67.64;102569.44;4870502;29;45754;-90
2021/09/21 05:55:49;;;;;;;;;48.50;38.50;;;;;13.69;67.52;102573.06;4866400;29;47043;-87
2021/09/21 05:58:15;;;;;;;;;46.75;36.00;;;;;13.67;67.88;102582.78;4884327;29;45381;-86
2021/09/21 06:00:40;;;;;;;;;47.50;37.00;;;;;13.66;67.75;102586.31;4883962;29;45325;-87
2021/09/21 06:03:06;;;;;;;;;51.50;40.75;;;;;13.67;67.87;102589.84;4884179;29;45415;-86
2021/09/21 06:05:31;;;;;;;;;48.50;37.50;;;;;13.64;67.74;102584.59;4879210;29;45599;-87
2021/09/21 06:07:57;;;;;;;;;49.00;38.25;;;;;13.65;67.72;102589.88;4883544;29;47240;-87
2021/09/21 06:10:24;;;;;;;;;45.75;36.75;;;;;13.64;67.43;102585.47;4883915;29;45714;-87
2021/09/21 06:12:50;;;;;;;;;32.25;29.50;;;;;13.63;68.28;102586.34;4883043;29;45256;-85
2021/09/21 06:15:16;;;;;;;;;46.25;36.25;;;;;13.70;67.57;102584.50;4883888;29;45351;-85
2021/09/21 06:17:43;;;;;;;;;44.25;36.75;;;;;13.72;67.80;102596.81;4883492;29;45394;-87
2021/09/21 06:20:10;;;;;;;;;39.00;33.75;;;;;13.80;67.71;102601.09;4883908;29;46100;-88
2021/09/21 06:22:41;;;;;;;;;43.00;35.00;;;;;13.81;67.68;102605.44;4884021;29;45446;-88
2021/09/21 06:25:08;;;;;;;;;39.25;33.50;;;;;13.90;66.83;102613.22;4882827;29;45224;-86
2021/09/21 06:27:35;;;;;;;;;46.25;35.00;;;;;13.91;66.96;102611.47;4883638;29;46283;-85
2021/09/21 06:30:02;;;;;;;;;37.00;33.75;;;;;13.92;66.30;102619.38;4879306;29;45895;-85
2021/09/21 06:35:38;;;;;;;;;36.75;29.75;;;;;14.00;66.32;102621.03;4880412;29;46221;-92
2021/09/21 06:38:04;;;;;;;;;40.25;35.25;;;;;13.97;66.89;102623.72;4895689;29;45753;-92
2021/09/21 06:40:29;;;;;;;;;36.00;31.50;;;;;13.95;65.68;102623.75;4882952;29;45517;-86
2021/09/21 06:42:55;;;;;;;;;39.50;33.75;;;;;13.94;65.82;102627.28;4883214;29;45352;-86
2021/09/21 06:45:20;;;;;;;;;36.25;28.25;;;;;13.88;66.59;102628.25;4866053;29;45433;-85
2021/09/21 06:47:46;;;;;;;;;42.75;36.75;;;;;13.93;66.47;102634.31;4883452;29;46560;-85
2021/09/21 06:50:13;;;;;;;;;33.75;30.75;;;;;13.94;66.77;102624.63;4883376;29;45581;-85
2021/09/21 06:52:38;;;;;;;;;41.50;32.00;;;;;14.05;66.27;102645.59;4882286;29;45516;-90
2021/09/21 06:55:05;;;;;;;;;37.75;33.25;;;;;14.07;64.67;102649.09;4883311;29;45368;-91
2021/09/21 06:57:31;;;;;;;;;30.75;27.50;;;;;14.05;65.74;102656.19;4866626;29;48043;-91
2021/09/21 07:03:18;;;;;;;;;34.25;29.50;;;;;14.10;64.90;102664.88;4883567;29;45431;-89
2021/09/21 07:05:44;;;;;;;;;27.25;21.75;;;;;14.10;65.42;102653.47;4883369;29;45471;-89
2021/09/21 07:08:10;;;;;;;;;35.75;33.00;;;;;14.09;64.76;102657.00;4869708;29;47757;-89
2021/09/21 07:10:58;;;;;;;;;37.50;34.00;;;;;14.11;66.33;102660.47;4879697;29;45425;-85
2021/09/21 07:17:56;;;;;;;;;28.75;26.25;;;;;14.36;64.24;102678.56;4777807;29;45305;-86
2021/09/21 07:20:30;;;;;;;;;27.00;24.75;;;;;14.26;63.06;102659.34;4772332;29;48013;-86
2021/09/21 07:22:55;;;;;;;;;24.00;19.25;;;;;14.33;64.90;102682.13;4858172;29;45221;-86
2021/09/21 07:25:23;;;;;;;;;32.25;28.00;;;;;14.34;64.10;102673.31;4843610;29;45529;-86
2021/09/21 07:27:52;;;;;;;;;33.00;27.75;;;;;14.47;64.15;102684.53;4847222;29;45230;-87
2021/09/21 07:30:18;;;;;;;;;25.25;23.25;;;;;14.55;64.68;102687.03;4843917;29;45400;-87
2021/09/21 07:32:46;;;;;;;;;35.00;30.50;;;;;14.65;63.08;102693.03;4849910;29;45544;-87
2021/09/21 07:35:14;;;;;;;;;33.50;24.50;;;;;14.60;62.52;102690.47;4859239;29;45358;-87
2021/09/21 07:37:40;;;;;;;;;27.75;25.00;;;;;14.63;62.69;102684.25;4846535;29;45759;-87
2021/09/21 07:40:20;;;;;;;;;28.00;24.50;;;;;14.66;61.55;102692.13;4840255;29;45415;-86
2021/09/21 07:42:48;;;;;;;;;22.00;19.00;;;;;14.72;62.92;102699.06;4847327;29;45673;-87
2021/09/21 07:45:17;;;;;;;;;27.00;22.25;;;;;14.70;61.59;102691.16;4846573;29;45302;-86
2021/09/21 07:47:52;;;;;;;;;24.25;20.25;;;;;14.68;61.45;102703.56;4847608;29;45459;-86
2021/09/21 07:50:20;;;;;;;;;31.75;28.50;;;;;14.67;59.82;102695.66;4848081;29;45690;-87
2021/09/21 07:52:51;;;;;;;;;22.00;19.75;;;;;14.58;62.54;102694.03;4848695;29;45630;-87
2021/09/21 07:55:21;;;;;;;;;24.25;19.50;;;;;14.62;60.90;102701.91;4848713;29;45349;-87
2021/09/21 07:58:00;;;;;;;;;;;;;;;;;;;;;
2021/09/21 08:00:27;;;;;;;;;25.50;20.75;;;;;14.60;60.26;102697.53;4848238;29;75729;-88
2021/09/21 08:02:56;;;;;;;;;21.25;18.00;;;;;14.65;60.23;102711.53;4839400;29;45210;-87
2021/09/21 08:05:29;;;;;;;;;25.00;22.25;;;;;14.62;61.03;102699.25;4848287;29;45234;-87
2021/09/21 08:07:54;;;;;;;;;22.25;21.25;;;;;14.65;60.18;102710.66;4848193;29;45367;-86
2021/09/21 08:10:24;;;;;;;;;29.25;23.25;;;;;14.68;61.21;102713.25;4846641;29;45975;-86
2021/09/21 08:12:53;;;;;;;;;27.25;21.75;;;;;14.77;60.13;102718.38;4844705;29;45482;-86
2021/09/21 08:15:30;;;;;;;;;22.00;20.00;;;;;14.80;58.73;102713.03;4869670;29;45398;-85
2021/09/21 08:17:57;;;;;;;;;23.75;20.50;;;;;14.76;59.77;102705.19;4871503;29;45213;-87
2021/09/21 08:20:28;;;;;;;;;22.75;20.00;;;;;14.75;57.57;102699.00;4861264;29;47845;-88
2021/09/21 08:22:56;;;;;;;;;16.75;16.50;;;;;14.77;59.07;102699.84;4885742;29;45673;-84
2021/09/21 08:25:22;;;;;;;;;16.75;13.75;;;;;14.88;60.11;102709.41;4885289;29;45258;-84
2021/09/21 08:27:48;;;;;;;;;17.00;15.50;;;;;14.92;59.24;102706.66;4869022;29;45239;-81
2021/09/21 08:30:14;;;;;;;;;17.25;15.25;;;;;15.00;59.75;102713.56;4884904;29;46335;-81
2021/09/21 08:32:40;;;;;;;;;14.00;13.25;;;;;15.17;59.54;102735.28;4889217;29;45640;-81
2021/09/21 08:35:06;;;;;;;;;15.25;13.75;;;;;15.20;59.65;102723.78;4885251;29;45505;-81
2021/09/21 08:37:32;;;;;;;;;16.00;13.50;;;;;15.32;59.45;102724.41;4885101;29;45528;-82
2021/09/21 08:39:57;;;;;;;;;14.25;10.75;;;;;15.35;56.89;102719.03;4884178;29;46330;-82
2021/09/21 08:42:23;;;;;;;;;13.50;11.50;;;;;15.39;57.03;102732.19;4891695;29;45269;-82
2021/09/21 08:44:48;;;;;;;;;13.75;11.75;;;;;15.45;57.43;102736.50;4885382;29;45578;-82
2021/09/21 08:47:15;;;;;;;;;9.00;9.00;;;;;15.38;54.71;102733.09;4886678;29;45447;-81
2021/09/21 08:49:40;;;;;;;;;12.00;11.00;;;;;15.34;54.99;102727.88;4884999;29;46541;-81
2021/09/21 08:52:06;;;;;;;;;11.50;11.50;;;;;15.35;54.51;102735.81;4883978;29;45464;-80
2021/09/21 08:54:31;;;;;;;;;15.25;12.00;;;;;15.27;55.73;102733.31;4884747;29;45431;-84
2021/09/21 08:56:59;;;;;;;;;13.00;11.00;;;;;15.28;55.62;102740.34;4884610;29;45477;-80
2021/09/21 08:59:33;;;;;;;;;15.75;12.00;;;;;15.26;55.53;102736.88;4887996;29;45233;-80
2021/09/21 09:02:09;;;;;;;;;9.00;8.25;;;;;15.36;56.66;102742.84;4889159;29;45700;-83
2021/09/21 09:04:36;;;;;;;;;9.50;7.25;;;;;15.34;57.90;102735.84;4873040;29;45495;-80
2021/09/21 09:07:02;;;;;;;;;14.75;11.75;;;;;15.50;57.07;102744.34;4884290;29;45467;-88
2021/09/21 09:09:32;;;;;;;;;13.00;12.25;;;;;15.53;55.17;102741.63;4868294;29;47279;-79
2021/09/21 09:12:01;;;;;;;;;18.00;13.00;;;;;15.57;55.00;102740.66;4884735;29;45412;-81
2021/09/21 09:14:38;;;;;;;;;18.00;15.50;;;;;15.58;55.97;102738.88;4884764;29;45287;-81
2021/09/21 09:17:13;;;;;;;;;12.25;12.25;;;;;15.63;56.82;102735.19;4884457;29;45419;-82
2021/09/21 09:19:44;;;;;;;;;13.00;12.00;;;;;15.72;55.43;102733.25;4883077;29;48265;-82
2021/09/21 09:22:16;;;;;;;;;13.25;12.50;;;;;15.81;55.75;102745.41;4883872;29;45657;-82
2021/09/21 09:24:53;;;;;;;;;17.75;11.50;;;;;15.90;55.94;102747.00;4886435;29;45210;-82
2021/09/21 09:27:20;;;;;;;;;15.50;14.25;;;;;15.88;55.21;102741.72;4892593;29;45435;-82
2021/09/21 09:29:59;;;;;;;;;11.25;11.25;;;;;15.92;56.24;102737.22;4883734;29;46552;-82
2021/09/21 09:32:24;;;;;;;;;7.50;7.50;;;;;15.98;57.53;102743.25;4894095;29;45445;-82
2021/09/21 09:34:50;;;;;;;;;11.25;10.50;;;;;16.08;56.02;102746.59;4883990;29;45356;-82
2021/09/21 09:37:17;;;;;;;;;11.50;11.50;;;;;16.17;53.79;102752.59;4883950;29;45478;-82
2021/09/21 09:39:43;;;;;;;;;17.50;16.50;;;;;16.09;52.97;102744.81;4885491;29;46218;-81
2021/09/21 09:42:11;;;;;;;;;12.75;10.25;;;;;16.07;52.92;102760.78;4884354;29;45224;-82
2021/09/21 09:44:37;;;;;;;;;14.00;13.75;;;;;16.03;52.66;102756.38;4884714;29;45356;-81
2021/09/21 09:47:05;;;;;;;;;18.25;15.00;;;;;16.01;54.75;102755.56;4864377;29;45435;-81
2021/09/21 09:49:35;;;;;;;;;12.00;11.50;;;;;16.14;54.98;102756.19;4865716;29;47221;-81
2021/09/21 09:52:09;;;;;;;;;16.50;15.25;;;;;16.16;54.33;102751.69;4884302;29;45348;-82
2021/09/21 09:54:37;;;;;;;;;21.25;17.00;;;;;16.24;51.71;102753.28;4884505;29;45296;-81
2021/09/21 09:57:05;;;;;;;;;18.50;15.00;;;;;16.23;54.13;102755.06;4884145;29;45451;-82
2021/09/21 09:59:31;;;;;;;;;20.75;17.25;;;;;16.23;52.88;102746.22;4890643;29;46198;-81
2021/09/21 10:01:56;;;;;;;;;14.00;12.50;;;;;16.21;53.50;102743.63;4895433;29;45273;-81
2021/09/21 10:04:23;;;;;;;;;19.25;15.75;;;;;16.24;53.63;102734.72;4867819;29;45302;-82
2021/09/21 10:06:49;;;;;;;;;15.00;14.50;;;;;16.34;53.33;102745.97;4887052;29;45273;-81
2021/09/21 10:09:15;;;;;;;;;12.50;12.00;;;;;16.36;54.82;102742.38;4893011;29;46321;-81
2021/09/21 10:11:44;;;;;;;;;23.00;20.25;;;;;16.46;52.31;102750.09;4883838;29;45625;-81
2021/09/21 10:14:12;;;;;;;;;17.75;16.75;;;;;16.46;53.32;102750.09;4884091;29;45457;-81
2021/09/21 10:16:59;;;;;;;;;16.25;12.75;;;;;16.50;53.77;102755.28;4883888;29;45426;-81
2021/09/21 10:19:25;;;;;;;;;20.25;17.50;;;;;16.51;52.70;102756.16;4882817;29;48388;-82
2021/09/21 10:21:53;;;;;;;;;19.50;18.00;;;;;16.53;52.71;102741.94;4890190;29;45615;-81
2021/09/21 10:24:30;;;;;;;;;17.50;17.50;;;;;16.57;51.45;102748.00;4888703;29;45463;-81
2021/09/21 10:27:02;;;;;;;;;20.50;18.25;;;;;16.61;52.55;102749.69;4873323;29;45457;-81
2021/09/21 10:29:28;;;;;;;;;19.00;14.50;;;;;16.67;53.58;102750.44;4868126;29;46463;-81
2021/09/21 10:31:58;;;;;;;;;15.50;15.50;;;;;16.73;52.38;102750.28;4882638;29;45431;-82
2021/09/21 10:34:23;;;;;;;;;24.25;20.00;;;;;16.79;52.99;102752.75;4883893;29;45194;-82
2021/09/21 10:36:59;;;;;;;;;17.75;16.50;;;;;16.83;53.57;102765.06;4882033;29;45460;-82
2021/09/21 10:39:24;;;;;;;;;18.00;14.00;;;;;16.81;54.60;102742.09;4879189;29;45550;-82
2021/09/21 10:42:02;;;;;;;;;19.75;18.75;;;;;16.91;52.83;102745.38;4884393;29;45518;-82
2021/09/21 10:44:28;;;;;;;;;20.25;19.75;;;;;16.95;53.13;102741.72;4887457;29;45421;-82
2021/09/21 10:47:06;;;;;;;;;19.25;16.00;;;;;17.01;53.55;102746.88;4869163;29;46074;-83
2021/09/21 10:49:42;;;;;;;;;19.75;15.50;;;;;17.03;53.03;102739.72;4886964;29;46235;-83
2021/09/21 10:52:10;;;;;;;;;19.25;17.25;;;;;17.09;53.22;102744.84;4882771;29;45520;-83
2021/09/21 10:54:43;;;;;;;;;19.00;18.00;;;;;17.07;53.60;102735.16;4886939;29;45474;-83
2021/09/21 10:57:10;;;;;;;;;22.00;18.25;;;;;17.15;53.09;102749.16;4886529;29;45164;-83
2021/09/21 10:59:37;;;;;;;;;23.50;20.25;;;;;17.18;51.53;102748.19;4898985;28;46159;-83
2021/09/21 11:02:08;;;;;;;;;25.00;20.75;;;;;17.18;51.63;102737.56;4885943;29;45441;-80
2021/09/21 11:04:43;;;;;;;;;23.75;20.50;;;;;17.25;52.62;102741.78;4886503;29;45253;-81
2021/09/21 11:07:11;;;;;;;;;24.50;21.25;;;;;17.32;51.93;102743.34;4885523;29;45591;-77
2021/09/21 11:09:37;;;;;;;;;18.50;16.25;;;;;17.34;53.01;102740.63;4873932;29;47288;-81
2021/09/21 11:12:08;;;;;;;;;20.25;18.75;;;;;17.39;52.97;102737.81;4885073;29;45333;-76
2021/09/21 11:14:35;;;;;;;;;18.75;16.50;;;;;17.46;53.64;102736.72;4882020;29;45423;-77
2021/09/21 11:17:01;;;;;;;;;25.25;19.50;;;;;17.55;52.11;102730.28;4886572;29;45401;-77
2021/09/21 11:19:31;;;;;;;;;19.50;17.50;;;;;17.64;51.89;102742.41;4869444;29;48234;-77
2021/09/21 11:22:10;;;;;;;;;23.25;22.25;;;;;17.71;51.72;102740.41;4885662;29;45233;-76
2021/09/21 11:24:37;;;;;;;;;15.25;15.25;;;;;17.68;51.67;102729.88;4883529;29;45376;-77
2021/09/21 11:27:06;;;;;;;;;21.50;18.00;;;;;17.71;52.75;102735.09;4884791;29;45422;-77
2021/09/21 11:29:34;;;;;;;;;20.50;15.75;;;;;17.80;52.14;102736.59;4885540;29;45550;-77
2021/09/21 11:32:14;;;;;;;;;21.00;19.50;;;;;17.90;51.63;102747.81;4869187;29;45272;-77
2021/09/21 11:34:39;;;;;;;;;24.00;20.50;;;;;17.92;51.57;102727.34;4886037;29;45351;-77
2021/09/21 11:37:06;;;;;;;;;24.00;16.00;;;;;18.00;52.71;102730.66;4886190;29;45413;-77
2021/09/21 11:39:31;;;;;;;;;20.75;18.00;;;;;18.10;52.62;102734.72;4885841;29;45516;-77
2021/09/21 11:41:57;;;;;;;;;20.00;17.75;;;;;18.18;52.16;102742.44;4882727;29;45258;-77
2021/09/21 11:44:23;;;;;;;;;18.75;15.00;;;;;18.11;52.67;102732.94;4876402;29;45290;-77